Time;durP1;ratioP1;P1;durP2;ratioP2;P2;SDS_P1;SDS_P2;PMS_P1;PMS_P2;Temp;Humidity;BMP_temperature;BMP_pressure;BME280_temperature;BME280_humidity;BME280_pressure;Samples;Min_cycle;Max_cycle;Signal;HPM_P1;HPM_P2
2022/11/10 00:01:23;;;;;;;23.38;10.25;;;7.90;99.90;;;;;;5052409;28;20151;-47
2022/11/10 00:04:09;;;;;;;19.48;10.05;;;7.90;99.90;;;;;;5047081;28;20193;-49
2022/11/10 00:06:54;;;;;;;21.45;10.15;;;7.80;99.90;;;;;;5045799;28;20095;-48
2022/11/10 00:09:40;;;;;;;18.02;9.30;;;7.80;99.90;;;;;;5052555;28;20060;-49
2022/11/10 00:12:25;;;;;;;19.33;9.65;;;7.80;99.90;;;;;;5044817;28;20051;-48
2022/11/10 00:18:15;;;;;;;17.73;9.23;;;7.90;99.90;;;;;;5048329;28;20064;-49
2022/11/10 00:21:05;;;;;;;17.50;9.90;;;7.90;99.90;;;;;;5044649;28;20056;-48
2022/11/10 00:23:51;;;;;;;17.67;9.13;;;7.90;99.90;;;;;;5044880;28;20582;-48
2022/11/10 00:26:36;;;;;;;14.65;8.70;;;7.80;99.90;;;;;;5052293;28;20408;-49
2022/11/10 00:29:22;;;;;;;23.10;10.65;;;7.90;99.90;;;;;;5047942;28;20048;-49
2022/11/10 00:32:07;;;;;;;19.85;10.23;;;7.90;99.90;;;;;;5051539;28;20051;-47
2022/11/10 00:34:52;;;;;;;14.27;8.88;;;7.90;99.90;;;;;;5045079;28;20055;-49
2022/11/10 00:37:38;;;;;;;13.82;7.60;;;8.60;99.90;;;;;;5045911;28;20048;-48
2022/11/10 00:40:23;;;;;;;15.35;8.35;;;7.80;99.90;;;;;;5042424;28;20048;-48
2022/11/10 00:43:09;;;;;;;14.60;7.72;;;7.80;99.90;;;;;;5051876;28;20067;-48
2022/11/10 00:45:54;;;;;;;15.50;8.85;;;7.80;99.90;;;;;;5050721;28;20416;-48
2022/11/10 00:48:40;;;;;;;16.60;8.18;;;7.80;99.90;;;;;;5051135;28;20133;-47
2022/11/10 00:51:27;;;;;;;15.18;8.07;;;7.70;99.90;;;;;;5048996;28;20056;-48
2022/11/10 00:54:12;;;;;;;13.88;8.25;;;7.80;99.90;;;;;;5052160;28;20515;-48
2022/11/10 00:56:57;;;;;;;17.55;8.70;;;7.80;99.90;;;;;;5035422;28;20095;-48
2022/11/10 00:59:43;;;;;;;20.77;9.85;;;7.80;99.90;;;;;;5051745;28;20064;-47
2022/11/10 01:02:28;;;;;;;20.85;10.55;;;7.70;99.90;;;;;;5048190;28;20420;-49
2022/11/10 01:05:14;;;;;;;20.10;10.13;;;7.70;99.90;;;;;;5051105;28;20155;-49
2022/11/10 01:07:59;;;;;;;17.85;10.32;;;7.60;99.90;;;;;;5047949;28;20603;-49
2022/11/10 01:10:45;;;;;;;16.50;9.50;;;7.60;99.90;;;;;;5051560;28;20528;-50
2022/11/10 01:13:30;;;;;;;22.10;11.05;;;7.60;99.90;;;;;;5051530;28;20527;-49
2022/11/10 01:16:41;;;;;;;15.85;10.00;;;7.60;99.90;;;;;;5047599;28;20049;-56
2022/11/10 01:19:26;;;;;;;20.33;10.20;;;8.30;99.90;;;;;;5053633;28;20051;-49
2022/11/10 01:22:11;;;;;;;17.92;10.38;;;7.60;99.90;;;;;;5070397;28;20054;-48
2022/11/10 01:24:56;;;;;;;19.65;9.75;;;7.60;99.90;;;;;;5071668;28;20151;-49
2022/11/10 01:27:42;;;;;;;17.20;9.30;;;7.60;99.90;;;;;;5039301;28;20105;-48
2022/11/10 01:30:27;;;;;;;17.20;9.43;;;7.60;99.90;;;;;;5031463;28;20052;-48
2022/11/10 01:33:12;;;;;;;16.40;8.80;;;7.60;99.90;;;;;;5031755;28;20130;-49
2022/11/10 01:35:58;;;;;;;20.90;9.25;;;7.60;99.90;;;;;;5032307;28;20052;-48
2022/11/10 01:38:43;;;;;;;16.60;9.02;;;7.60;99.90;;;;;;5049151;28;20456;-48
2022/11/10 01:41:29;;;;;;;22.75;9.32;;;7.60;99.90;;;;;;5050739;28;20055;-48
2022/11/10 01:44:17;;;;;;;19.58;10.60;;;7.60;99.90;;;;;;5035616;28;20425;-48
2022/11/10 01:47:03;;;;;;;22.17;9.90;;;7.60;99.90;;;;;;5044668;28;20098;-49
2022/11/10 01:49:48;;;;;;;16.30;9.60;;;7.60;99.90;;;;;;5030587;28;20112;-48
2022/11/10 01:52:34;;;;;;;22.23;9.82;;;7.60;99.90;;;;;;5030053;28;20521;-48
2022/11/10 01:55:20;;;;;;;18.40;9.45;;;7.60;99.90;;;;;;5030725;28;20053;-50
2022/11/10 01:58:05;;;;;;;15.82;10.20;;;7.60;99.90;;;;;;5031045;28;20064;-50
2022/11/10 02:00:51;;;;;;;17.55;10.00;;;7.60;99.90;;;;;;5043850;28;20520;-48
2022/11/10 02:03:39;;;;;;;19.30;9.98;;;7.60;99.90;;;;;;5044301;28;20096;-49
2022/11/10 02:06:28;;;;;;;21.58;10.45;;;7.60;99.90;;;;;;5030700;28;20057;-49
2022/11/10 02:09:14;;;;;;;18.05;9.63;;;7.50;99.90;;;;;;5030135;28;20092;-48
2022/11/10 02:11:59;;;;;;;18.73;10.40;;;7.60;99.90;;;;;;5030551;28;20049;-49
2022/11/10 02:14:45;;;;;;;19.13;10.38;;;7.60;99.90;;;;;;5034261;28;20122;-49
2022/11/10 02:17:30;;;;;;;15.45;9.90;;;7.60;99.90;;;;;;5042666;28;20048;-48
2022/11/10 02:20:18;;;;;;;21.35;9.90;;;7.50;99.90;;;;;;5050420;28;20048;-49
2022/11/10 02:23:12;;;;;;;20.23;11.13;;;7.50;99.90;;;;;;5034773;28;20059;-49
2022/11/10 02:25:57;;;;;;;18.05;9.75;;;7.50;99.90;;;;;;5034753;28;20411;-48
2022/11/10 02:28:43;;;;;;;19.00;10.63;;;7.50;99.90;;;;;;5038179;28;20055;-49
2022/11/10 02:31:28;;;;;;;19.40;10.18;;;7.50;99.90;;;;;;5045966;28;20148;-49
2022/11/10 02:34:14;;;;;;;22.95;11.15;;;7.50;99.90;;;;;;5042052;28;20048;-48
2022/11/10 02:37:00;;;;;;;18.95;10.05;;;7.50;99.90;;;;;;5034667;28;20055;-50
2022/11/10 02:39:45;;;;;;;20.42;10.32;;;7.50;99.90;;;;;;5019719;28;20065;-48
2022/11/10 02:42:31;;;;;;;13.30;8.60;;;7.50;99.90;;;;;;5035403;28;20056;-49
2022/11/10 02:45:16;;;;;;;13.77;8.15;;;7.50;99.90;;;;;;5046502;28;20059;-48
2022/11/10 02:48:02;;;;;;;16.58;8.52;;;7.60;99.90;;;;;;5054768;28;20107;-50
2022/11/10 02:50:47;;;;;;;12.73;8.27;;;7.60;99.90;;;;;;5036093;28;20710;-49
2022/11/10 02:53:33;;;;;;;14.27;9.00;;;7.60;99.90;;;;;;5034019;28;20534;-50
2022/11/10 02:56:18;;;;;;;13.95;8.60;;;7.60;99.90;;;;;;5034580;28;20047;-48
2022/11/10 02:59:03;;;;;;;14.80;8.38;;;7.60;99.90;;;;;;5033987;28;20053;-50
2022/11/10 03:01:49;;;;;;;17.65;8.90;;;7.60;99.90;;;;;;5033606;28;20184;-48
2022/11/10 03:04:34;;;;;;;15.25;8.35;;;7.60;99.90;;;;;;5033735;28;20688;-50
2022/11/10 03:07:20;;;;;;;12.10;8.02;;;7.60;99.90;;;;;;5034247;28;20140;-49
2022/11/10 03:10:06;;;;;;;13.32;7.88;;;7.60;99.90;;;;;;5042017;28;20064;-49
2022/11/10 03:12:59;;;;;;;11.80;8.20;;;7.60;99.90;;;;;;5033767;28;20516;-48
2022/11/10 03:15:46;;;;;;;14.02;8.05;;;7.60;99.90;;;;;;5033552;28;20413;-50
2022/11/10 03:18:32;;;;;;;13.93;8.02;;;7.60;99.90;;;;;;5033993;28;20053;-50
2022/11/10 03:21:17;;;;;;;14.73;8.68;;;7.70;99.90;;;;;;5034133;28;20057;-49
2022/11/10 03:24:03;;;;;;;13.75;8.15;;;7.70;99.90;;;;;;5034080;28;20060;-48
2022/11/10 03:26:48;;;;;;;12.13;7.63;;;7.70;99.90;;;;;;5041257;28;20052;-50
2022/11/10 03:29:33;;;;;;;12.70;8.38;;;7.70;99.90;;;;;;5042834;28;20513;-50
2022/11/10 03:32:19;;;;;;;13.95;9.18;;;7.70;99.90;;;;;;5038264;28;20056;-48
2022/11/10 03:35:05;;;;;;;19.05;10.18;;;7.70;99.90;;;;;;5049988;28;20138;-48
2022/11/10 03:37:50;;;;;;;17.98;9.13;;;7.70;99.90;;;;;;5046179;28;20124;-49
2022/11/10 03:40:35;;;;;;;24.10;9.32;;;7.70;99.90;;;;;;5041725;28;20127;-49
2022/11/10 03:43:40;;;;;;;15.80;9.80;;;7.60;99.90;;;;;;5040599;28;20418;-49
2022/11/10 03:46:26;;;;;;;17.88;9.90;;;7.60;99.90;;;;;;5049435;28;20058;-50
2022/11/10 03:49:11;;;;;;;20.45;9.90;;;7.60;99.90;;;;;;5053738;28;20167;-49
2022/11/10 03:51:57;;;;;;;20.05;9.98;;;7.60;99.90;;;;;;5043967;28;20107;-48
2022/11/10 03:54:42;;;;;;;15.32;9.55;;;7.60;99.90;;;;;;5052969;28;20056;-50
2022/11/10 03:57:27;;;;;;;15.48;9.77;;;7.60;99.90;;;;;;5033977;28;20184;-49
2022/11/10 04:00:14;;;;;;;14.80;9.85;;;7.60;99.90;;;;;;5033251;28;20521;-49
2022/11/10 04:02:59;;;;;;;19.25;9.63;;;7.70;99.90;;;;;;5032822;28;20510;-48
2022/11/10 04:08:58;;;;;;;15.57;9.18;;;7.80;99.90;;;;;;5033380;28;20063;-50
2022/11/10 04:17:51;;;;;;;15.60;8.65;;;7.80;99.90;;;;;;5035566;28;20044;-49
2022/11/10 04:20:36;;;;;;;14.00;8.63;;;7.80;99.90;;;;;;5052365;28;20047;-49
2022/11/10 04:23:27;;;;;;;17.13;8.90;;;7.90;99.90;;;;;;5046796;28;20551;-49
2022/11/10 04:26:28;;;;;;;18.25;9.73;;;7.80;99.90;;;;;;5032693;28;20067;-50
2022/11/10 04:29:16;;;;;;;18.33;9.38;;;7.80;99.90;;;;;;5041103;28;20159;-48
2022/11/10 04:32:01;;;;;;;16.02;9.82;;;7.80;99.90;;;;;;5048205;28;20417;-49
2022/11/10 04:34:46;;;;;;;16.85;8.40;;;7.80;99.90;;;;;;5032639;28;20176;-48
2022/11/10 04:37:32;;;;;;;14.52;9.20;;;7.90;99.90;;;;;;5031732;28;20543;-50
2022/11/10 04:40:17;;;;;;;15.45;8.70;;;7.90;99.90;;;;;;5044798;28;20163;-48
2022/11/10 04:43:03;;;;;;;16.55;9.65;;;7.90;99.90;;;;;;5050874;28;20056;-48
2022/11/10 04:45:49;;;;;;;17.10;10.57;;;7.90;99.90;;;;;;5051029;28;20512;-50
2022/11/10 04:48:35;;;;;;;16.77;10.18;;;7.80;99.90;;;;;;5038590;28;20528;-51
2022/11/10 04:51:23;;;;;;;18.67;10.73;;;7.80;99.90;;;;;;5048505;28;20516;-48
2022/11/10 04:54:10;;;;;;;17.23;9.52;;;7.90;99.90;;;;;;5052375;28;20051;-49
2022/11/10 04:56:55;;;;;;;16.35;9.75;;;7.90;99.90;;;;;;5047566;28;20057;-50
2022/11/10 04:59:41;;;;;;;16.45;9.40;;;7.90;99.90;;;;;;5047949;28;20139;-49
2022/11/10 05:02:26;;;;;;;19.05;9.80;;;7.90;99.90;;;;;;5044745;28;20051;-48
2022/11/10 05:05:12;;;;;;;17.58;10.73;;;7.90;99.90;;;;;;5033025;28;20183;-48
2022/11/10 05:07:57;;;;;;;20.33;9.90;;;7.90;99.90;;;;;;5032193;28;20060;-49
2022/11/10 05:10:43;;;;;;;16.13;10.02;;;8.00;99.90;;;;;;5049168;28;20294;-50
2022/11/10 05:13:28;;;;;;;16.88;9.90;;;8.00;99.90;;;;;;5050985;28;20052;-49
2022/11/10 05:16:13;;;;;;;19.20;10.48;;;8.00;99.90;;;;;;5048624;28;20516;-49
2022/11/10 05:18:59;;;;;;;15.93;9.60;;;8.00;99.90;;;;;;5050280;28;20056;-48
2022/11/10 05:21:44;;;;;;;16.67;10.10;;;8.00;99.90;;;;;;5031845;28;20088;-48
2022/11/10 05:24:30;;;;;;;42.30;13.48;;;8.00;99.90;;;;;;5031598;28;20526;-50
2022/11/10 05:27:15;;;;;;;14.90;9.05;;;8.00;99.90;;;;;;5048068;28;20048;-50
2022/11/10 05:30:01;;;;;;;14.52;8.75;;;8.00;99.90;;;;;;5043163;28;20064;-48
2022/11/10 05:32:46;;;;;;;14.75;9.18;;;7.90;99.90;;;;;;5030332;28;20044;-52
2022/11/10 05:35:32;;;;;;;12.73;7.75;;;7.80;99.90;;;;;;5035893;28;20060;-49
2022/11/10 05:38:17;;;;;;;11.85;8.10;;;7.90;99.90;;;;;;5049975;28;20048;-49
2022/11/10 05:41:03;;;;;;;16.10;9.23;;;7.90;99.90;;;;;;5043793;28;20060;-49
2022/11/10 05:43:48;;;;;;;15.45;8.65;;;7.90;99.90;;;;;;5031125;28;20051;-51
2022/11/10 05:46:34;;;;;;;14.48;9.80;;;7.90;99.90;;;;;;5032150;28;20099;-49
2022/11/10 05:49:19;;;;;;;16.00;9.93;;;7.90;99.90;;;;;;5031109;28;20422;-53
2022/11/10 05:52:04;;;;;;;16.00;9.85;;;7.90;99.90;;;;;;5029594;28;20188;-48
2022/11/10 05:54:50;;;;;;;16.73;10.40;;;7.90;99.90;;;;;;5035001;28;20052;-50
2022/11/10 05:57:35;;;;;;;19.92;10.90;;;8.00;99.90;;;;;;5034825;28;20052;-50
2022/11/10 06:00:27;;;;;;;17.33;10.32;;;8.00;99.90;;;;;;5039103;28;20055;-50
2022/11/10 06:03:17;;;;;;;25.20;12.98;;;8.00;99.90;;;;;;5034544;28;20175;-48
2022/11/10 06:06:04;;;;;;;19.77;12.07;;;8.00;99.90;;;;;;5036043;28;20084;-48
2022/11/10 06:08:49;;;;;;;17.00;9.88;;;8.00;99.90;;;;;;5035574;28;20053;-52
2022/11/10 06:11:34;;;;;;;17.92;9.63;;;8.00;99.90;;;;;;5034313;28;20056;-54
2022/11/10 06:14:20;;;;;;;12.65;8.43;;;8.10;99.90;;;;;;5034606;28;20054;-46
2022/11/10 06:17:05;;;;;;;13.43;8.98;;;8.10;99.90;;;;;;5046717;28;20060;-49
2022/11/10 06:19:51;;;;;;;14.13;8.18;;;8.20;99.90;;;;;;5053660;28;20200;-49
2022/11/10 06:22:36;;;;;;;11.48;7.60;;;8.20;99.90;;;;;;5052386;28;20052;-49
2022/11/10 06:25:21;;;;;;;11.60;7.82;;;8.20;99.90;;;;;;5039427;28;20144;-48
2022/11/10 06:28:08;;;;;;;10.73;7.35;;;8.20;99.90;;;;;;5035075;28;20056;-50
2022/11/10 06:30:57;;;;;;;13.63;7.53;;;8.20;99.90;;;;;;5034662;28;20528;-49
2022/11/10 06:33:42;;;;;;;14.40;8.10;;;8.20;99.90;;;;;;5033798;28;20076;-49
2022/11/10 06:36:28;;;;;;;13.07;7.88;;;8.30;99.90;;;;;;5034683;28;20176;-49
2022/11/10 06:39:13;;;;;;;11.23;7.30;;;8.20;99.90;;;;;;5034585;28;20145;-50
2022/11/10 06:41:59;;;;;;;12.88;8.23;;;8.30;99.90;;;;;;5033360;28;20138;-50
2022/11/10 06:44:44;;;;;;;14.07;8.93;;;8.20;99.90;;;;;;5034593;28;20488;-48
2022/11/10 06:47:30;;;;;;;17.45;8.38;;;8.20;99.90;;;;;;5034338;28;20068;-50
2022/11/10 06:50:16;;;;;;;13.55;8.15;;;8.20;99.90;;;;;;5034285;28;20125;-50
2022/11/10 06:53:01;;;;;;;13.85;9.50;;;8.10;99.90;;;;;;5049798;28;20171;-48
2022/11/10 06:55:46;;;;;;;16.67;9.77;;;8.10;99.90;;;;;;5039113;28;20047;-49
2022/11/10 06:58:32;;;;;;;18.77;9.93;;;8.20;99.90;;;;;;5045884;28;20052;-49
2022/11/10 07:01:18;;;;;;;14.38;10.05;;;8.20;99.90;;;;;;5034415;28;20056;-49
2022/11/10 07:04:07;;;;;;;20.52;10.15;;;8.20;99.90;;;;;;5034343;28;20127;-49
2022/11/10 07:07:08;;;;;;;14.18;8.75;;;8.30;99.90;;;;;;5037472;28;20390;-49
2022/11/10 07:09:54;;;;;;;13.23;8.35;;;8.30;99.90;;;;;;5034214;28;20555;-49
2022/11/10 07:12:39;;;;;;;18.05;9.82;;;8.30;99.90;;;;;;5032189;28;20142;-51
2022/11/10 07:15:25;;;;;;;14.55;8.48;;;8.30;99.90;;;;;;5033599;28;20418;-49
2022/11/10 07:18:10;;;;;;;13.70;9.27;;;8.30;99.90;;;;;;5076330;22;20052;-47
2022/11/10 07:20:56;;;;;;;12.13;7.93;;;8.30;99.90;;;;;;5079705;28;20052;-47
2022/11/10 07:23:41;;;;;;;11.25;7.95;;;8.40;99.90;;;;;;5073630;28;20059;-48
2022/11/10 07:26:27;;;;;;;16.10;8.48;;;8.40;99.90;;;;;;5074998;28;20094;-50
2022/11/10 07:29:12;;;;;;;13.82;8.30;;;8.40;99.90;;;;;;5066497;28;20409;-47
2022/11/10 07:31:57;;;;;;;14.77;8.70;;;8.60;99.90;;;;;;5052789;28;20350;-47
2022/11/10 07:34:43;;;;;;;16.25;8.30;;;8.60;99.90;;;;;;5073250;28;20044;-47
2022/11/10 07:37:28;;;;;;;14.80;8.27;;;8.60;99.90;;;;;;5067988;28;20127;-47
2022/11/10 07:40:14;;;;;;;17.52;9.07;;;8.70;99.90;;;;;;5073581;28;20051;-51
2022/11/10 07:42:59;;;;;;;15.02;8.63;;;8.80;99.90;;;;;;5073325;28;20059;-52
2022/11/10 07:45:45;;;;;;;14.73;9.10;;;8.90;99.90;;;;;;5072441;28;20048;-47
2022/11/10 07:48:30;;;;;;;17.50;9.85;;;8.80;99.90;;;;;;5071038;28;20059;-47
2022/11/10 07:51:15;;;;;;;19.73;10.35;;;8.90;99.90;;;;;;5073712;28;20402;-47
2022/11/10 07:54:01;;;;;;;15.48;9.35;;;9.00;99.90;;;;;;5070751;28;20048;-46
2022/11/10 07:56:47;;;;;;;12.63;8.48;;;9.50;99.90;;;;;;5064728;28;20392;-46
2022/11/10 07:59:32;;;;;;;11.82;7.63;;;9.00;99.90;;;;;;5073111;28;20056;-47
2022/11/10 08:02:18;;;;;;;19.75;8.55;;;9.00;99.90;;;;;;5070028;28;20052;-49
2022/11/10 08:05:03;;;;;;;12.32;7.88;;;9.00;99.90;;;;;;5072767;28;20194;-47
2022/11/10 08:07:51;;;;;;;12.75;7.75;;;9.00;99.90;;;;;;5073238;28;20128;-47
2022/11/10 08:10:37;;;;;;;10.68;7.43;;;9.10;99.90;;;;;;5067508;28;20055;-46
2022/11/10 08:13:22;;;;;;;15.50;9.68;;;9.30;99.90;;;;;;5072452;28;20411;-46
2022/11/10 08:16:08;;;;;;;19.13;11.65;;;9.30;99.90;;;;;;5072446;28;20059;-46
2022/11/10 08:18:53;;;;;;;17.40;10.05;;;9.40;99.90;;;;;;5062004;28;20067;-47
2022/11/10 08:21:39;;;;;;;18.20;9.80;;;9.50;99.90;;;;;;5071637;28;20106;-49
2022/11/10 08:24:24;;;;;;;15.55;9.85;;;9.50;99.90;;;;;;5072773;28;20133;-48
2022/11/10 08:27:10;;;;;;;24.08;13.52;;;9.60;99.90;;;;;;5071193;28;20060;-47
2022/11/10 08:29:55;;;;;;;27.15;15.20;;;9.60;99.90;;;;;;5065806;28;20056;-49
2022/11/10 08:32:41;;;;;;;19.80;11.45;;;9.60;99.90;;;;;;5072272;28;20523;-47
2022/11/10 08:35:28;;;;;;;17.33;10.00;;;9.70;99.90;;;;;;5063764;28;20134;-47
2022/11/10 08:38:16;;;;;;;15.68;8.95;;;9.70;99.90;;;;;;5072416;28;20048;-47
2022/11/10 08:41:02;;;;;;;16.87;8.83;;;9.70;99.90;;;;;;5060717;28;20051;-48
2022/11/10 08:43:47;;;;;;;15.73;8.80;;;9.80;99.90;;;;;;5060942;28;20508;-47
2022/11/10 08:46:32;;;;;;;18.08;9.35;;;9.90;99.90;;;;;;5051410;28;20056;-48
2022/11/10 08:49:18;;;;;;;16.50;9.48;;;9.90;99.90;;;;;;5059707;28;20063;-47
2022/11/10 08:52:03;;;;;;;16.92;9.02;;;9.80;99.90;;;;;;5071822;28;20058;-46
2022/11/10 08:54:49;;;;;;;18.80;9.73;;;9.80;99.90;;;;;;5071561;28;20063;-47
2022/11/10 08:57:34;;;;;;;15.05;9.45;;;9.80;99.90;;;;;;5065709;28;20051;-46
2022/11/10 09:00:19;;;;;;;13.85;9.10;;;9.80;99.90;;;;;;5063109;28;20072;-47
2022/11/10 09:03:17;;;;;;;17.80;10.02;;;9.80;99.90;;;;;;5059665;28;20071;-47
2022/11/10 09:06:03;;;;;;;14.35;9.27;;;10.00;99.90;;;;;;5052080;28;20409;-46
2022/11/10 09:08:49;;;;;;;14.18;9.00;;;10.10;99.90;;;;;;5051627;28;20110;-47
2022/11/10 09:11:34;;;;;;;12.35;8.27;;;10.00;99.90;;;;;;5071062;28;20091;-47
2022/11/10 09:14:19;;;;;;;16.88;9.70;;;10.10;99.90;;;;;;5071146;28;20102;-47
2022/11/10 09:17:05;;;;;;;18.45;10.55;;;10.10;99.90;;;;;;5071933;28;20571;-47
2022/11/10 09:19:50;;;;;;;18.13;10.35;;;10.10;99.90;;;;;;5068599;28;20471;-47
2022/11/10 09:22:36;;;;;;;13.50;8.07;;;10.20;99.90;;;;;;5070853;28;20056;-47
2022/11/10 09:25:22;;;;;;;14.65;7.85;;;10.20;99.90;;;;;;5071465;28;20052;-47
2022/11/10 09:28:16;;;;;;;16.40;10.77;;;10.30;99.90;;;;;;5068735;28;20141;-47
2022/11/10 09:31:01;;;;;;;22.45;10.75;;;10.40;99.90;;;;;;5065605;28;20157;-47
2022/11/10 09:33:46;;;;;;;15.50;9.02;;;10.50;99.90;;;;;;5066705;28;20145;-52
2022/11/10 09:36:31;;;;;;;23.27;14.18;;;10.50;99.90;;;;;;5064168;28;20513;-47
2022/11/10 09:39:17;;;;;;;19.35;11.75;;;10.70;99.90;;;;;;5065383;28;20052;-47
2022/11/10 09:42:33;;;;;;;16.40;9.27;;;10.80;99.90;;;;;;5057579;28;20051;-46
2022/11/10 09:45:31;;;;;;;11.13;7.25;;;10.90;99.90;;;;;;5060569;28;20062;-46
2022/11/10 09:48:28;;;;;;;10.85;6.85;;;11.10;99.90;;;;;;5049700;28;20068;-46
2022/11/10 09:51:24;;;;;;;8.27;6.30;;;11.30;99.90;;;;;;5071041;28;20086;-47
2022/11/10 09:54:21;;;;;;;9.50;6.35;;;11.50;99.90;;;;;;5070706;28;20048;-47
2022/11/10 09:57:16;;;;;;;5.78;4.57;;;11.90;99.90;;;;;;5067186;28;20175;-50
2022/11/10 10:00:04;;;;;;;6.35;4.05;;;12.00;99.90;;;;;;5065230;28;20448;-47
2022/11/10 10:03:01;;;;;;;5.23;4.10;;;12.10;99.90;;;;;;5064379;28;20162;-46
2022/11/10 10:05:52;;;;;;;4.78;3.38;;;12.00;99.90;;;;;;5063203;28;20102;-48
2022/11/10 10:08:37;;;;;;;6.07;3.72;;;12.00;99.90;;;;;;5071180;28;20051;-47
2022/11/10 10:11:45;;;;;;;6.95;3.92;;;11.90;99.90;;;;;;5069238;28;20055;-47
2022/11/10 10:14:55;;;;;;;7.32;4.53;;;11.80;99.90;;;;;;5061201;28;20048;-47
2022/11/10 10:17:55;;;;;;;;;;;11.70;99.90;;;;;;5050895;28;20130;-47
2022/11/10 10:21:02;;;;;;;9.00;5.25;;;11.70;99.90;;;;;;5070964;28;20308;-47
2022/11/10 10:23:50;;;;;;;7.78;5.32;;;11.60;99.90;;;;;;5070844;28;20063;-47
2022/11/10 10:26:59;;;;;;;8.10;5.32;;;11.70;99.90;;;;;;5069350;28;20052;-48
2022/11/10 10:29:46;;;;;;;8.25;5.43;;;11.80;99.90;;;;;;5059333;28;20055;-47
2022/11/10 10:32:32;;;;;;;9.68;5.55;;;11.80;99.90;;;;;;5051188;28;20079;-47
2022/11/10 10:35:18;;;;;;;10.35;5.63;;;11.90;99.90;;;;;;5060240;28;20397;-47
2022/11/10 10:38:11;;;;;;;8.23;5.20;;;12.00;99.90;;;;;;5061414;28;20063;-48
2022/11/10 10:41:02;;;;;;;7.43;5.05;;;12.40;99.90;;;;;;5066940;28;20129;-47
2022/11/10 10:43:50;;;;;;;9.30;4.63;;;12.80;99.90;;;;;;5065865;28;20129;-48
2022/11/10 10:46:46;;;;;;;9.10;5.05;;;13.00;99.90;;;;;;5073991;28;20465;-47
2022/11/10 10:49:37;;;;;;;9.57;5.30;;;13.20;99.90;;;;;;5074735;28;20180;-50
2022/11/10 10:52:24;;;;;;;5.38;4.05;;;13.50;99.90;;;;;;5071059;28;20059;-47
2022/11/10 10:55:12;;;;;;;7.50;4.65;;;13.50;99.90;;;;;;5074591;28;20182;-48
2022/11/10 10:58:04;;;;;;;6.57;4.88;;;13.50;99.90;;;;;;5074671;28;20055;-48
2022/11/10 11:00:51;;;;;;;5.03;4.03;;;13.20;99.90;;;;;;5067428;28;20138;-48
2022/11/10 11:03:45;;;;;;;7.18;4.35;;;12.90;99.90;;;;;;5073967;28;20056;-49
2022/11/10 11:06:33;;;;;;;7.47;5.18;;;12.80;99.90;;;;;;5074317;28;20056;-46
2022/11/10 11:09:23;;;;;;;6.65;4.70;;;12.80;99.90;;;;;;5070945;28;20137;-47
2022/11/10 11:12:24;;;;;;;8.18;4.82;;;12.80;99.90;;;;;;5073707;28;20047;-49
2022/11/10 11:15:21;;;;;;;9.90;4.35;;;12.90;99.90;;;;;;5073992;28;20082;-48
2022/11/10 11:18:15;;;;;;;9.07;4.80;;;13.00;99.90;;;;;;5067872;28;20141;-47
2022/11/10 11:21:19;;;;;;;8.70;4.18;;;13.00;99.90;;;;;;5067755;28;20050;-47
2022/11/10 11:24:10;;;;;;;5.03;3.28;;;13.20;99.90;;;;;;5074300;28;20409;-48
2022/11/10 11:27:08;;;;;;;5.85;3.60;;;13.20;99.90;;;;;;5072635;28;20059;-47
2022/11/10 11:30:08;;;;;;;6.05;3.28;;;13.20;99.90;;;;;;5066693;28;20412;-47
2022/11/10 11:33:05;;;;;;;5.95;2.65;;;13.10;99.90;;;;;;5073364;28;20191;-48
2022/11/10 11:35:59;;;;;;;7.00;2.20;;;13.10;99.90;;;;;;5065750;28;20047;-47
2022/11/10 11:38:59;;;;;;;11.32;2.70;;;13.10;99.90;;;;;;5073412;28;20121;-48
2022/11/10 11:42:13;;;;;;;3.80;1.67;;;13.10;99.90;;;;;;5073306;28;20527;-48
2022/11/10 11:45:20;;;;;;;3.33;1.30;;;13.10;99.90;;;;;;5073771;28;20059;-46
2022/11/10 11:48:36;;;;;;;4.95;1.88;;;13.20;99.90;;;;;;5053446;28;20130;-48
2022/11/10 11:51:56;;;;;;;3.28;1.60;;;13.30;99.90;;;;;;5068287;28;20063;-46
2022/11/10 11:55:15;;;;;;;4.43;2.40;;;13.00;99.90;;;;;;5072420;28;20531;-46
2022/11/10 11:58:04;;;;;;;6.25;2.83;;;12.80;99.90;;;;;;5070874;28;20044;-47
2022/11/10 12:01:09;;;;;;;5.60;2.88;;;12.70;99.90;;;;;;5063027;28;20048;-47
2022/11/10 12:04:03;;;;;;;4.18;2.53;;;12.70;99.90;;;;;;5073138;28;20071;-47
2022/11/10 12:07:25;;;;;;;4.90;2.90;;;12.80;99.90;;;;;;5073225;28;20055;-47
2022/11/10 12:10:36;;;;;;;5.80;3.08;;;12.90;99.90;;;;;;5069522;28;20129;-48
2022/11/10 12:13:49;;;;;;;4.63;2.70;;;12.90;99.90;;;;;;5072306;28;20405;-51
2022/11/10 12:16:37;;;;;;;4.95;3.05;;;13.10;99.90;;;;;;5072996;28;20527;-47
2022/11/10 12:19:37;;;;;;;7.10;3.20;;;13.30;99.90;;;;;;5067375;28;20056;-46
2022/11/10 12:22:41;;;;;;;3.72;2.70;;;13.30;99.90;;;;;;5072671;28;20051;-47
2022/11/10 12:25:30;;;;;;;4.68;2.90;;;13.40;99.90;;;;;;5072430;28;20055;-47
2022/11/10 12:28:43;;;;;;;7.03;2.63;;;13.40;99.90;;;;;;5072160;28;20079;-47
2022/11/10 12:31:33;;;;;;;5.47;3.22;;;13.40;99.90;;;;;;5072468;28;20056;-47
2022/11/10 12:34:41;;;;;;;4.45;2.67;;;13.40;99.90;;;;;;5069370;28;20052;-47
2022/11/10 12:37:29;;;;;;;6.78;2.60;;;13.40;99.90;;;;;;5069902;28;20055;-47
2022/11/10 12:40:18;;;;;;;5.90;2.60;;;13.60;99.90;;;;;;5072464;28;20421;-47
2022/11/10 12:43:26;;;;;;;5.57;2.85;;;13.50;99.90;;;;;;5072044;28;20107;-51
2022/11/10 12:46:12;;;;;;;7.53;2.95;;;13.70;99.90;;;;;;5067778;28;20711;-47
2022/11/10 12:49:12;;;;;;;3.35;2.05;;;13.60;99.90;;;;;;5065646;28;20075;-46
2022/11/10 12:52:02;;;;;;;3.30;1.88;;;13.50;99.90;;;;;;5071841;28;20063;-47
2022/11/10 12:54:48;;;;;;;4.35;2.15;;;13.60;99.90;;;;;;5064061;28;20405;-49
2022/11/10 12:57:35;;;;;;;7.18;2.60;;;13.50;99.90;;;;;;5072000;28;20135;-47
2022/11/10 13:00:24;;;;;;;4.28;2.33;;;13.50;99.90;;;;;;5069225;28;20047;-47
2022/11/10 13:03:23;;;;;;;5.25;2.13;;;13.40;99.90;;;;;;5071425;28;20071;-49
2022/11/10 13:06:34;;;;;;;2.47;2.08;;;13.40;99.90;;;;;;5072162;28;20412;-46
2022/11/10 13:09:42;;;;;;;4.65;2.33;;;13.40;99.90;;;;;;5049512;28;20060;-48
2022/11/10 13:12:28;;;;;;;3.67;2.72;;;13.50;99.90;;;;;;5068984;28;20475;-48
2022/11/10 13:15:38;;;;;;;6.00;2.40;;;13.50;99.90;;;;;;5071780;28;20047;-46
2022/11/10 13:18:29;;;;;;;4.95;2.38;;;13.50;99.90;;;;;;5077122;22;20078;-48
2022/11/10 13:21:15;;;;;;;4.93;2.25;;;13.60;99.90;;;;;;5070842;28;20171;-49
2022/11/10 13:24:01;;;;;;;3.28;1.92;;;13.60;99.90;;;;;;5070891;28;20095;-48
2022/11/10 13:26:52;;;;;;;5.30;2.10;;;13.60;99.90;;;;;;5071402;28;20133;-48
2022/11/10 13:29:46;;;;;;;1.38;1.15;;;13.60;99.90;;;;;;5043279;28;20067;-47
2022/11/10 13:32:34;;;;;;;2.95;1.10;;;13.50;99.90;;;;;;5051204;28;20093;-48
2022/11/10 13:35:28;;;;;;;4.75;1.15;;;13.50;99.90;;;;;;5031286;28;20048;-48
2022/11/10 13:38:33;;;;;;;1.98;0.90;;;13.50;99.90;;;;;;5044755;28;20111;-48
2022/11/10 13:41:25;;;;;;;2.58;1.10;;;13.50;99.90;;;;;;5045453;28;20175;-48
2022/11/10 13:44:26;;;;;;;2.75;1.05;;;13.50;99.90;;;;;;5046265;28;20059;-48
2022/11/10 13:47:56;;;;;;;3.30;1.80;;;13.40;99.90;;;;;;5051508;28;20110;-48
2022/11/10 13:51:00;;;;;;;5.27;2.30;;;13.40;99.90;;;;;;5048369;28;20048;-47
2022/11/10 13:54:02;;;;;;;4.32;1.73;;;13.40;99.90;;;;;;5051226;28;20582;-48
2022/11/10 13:57:27;;;;;;;3.78;1.65;;;13.30;99.90;;;;;;5051551;28;20138;-48
2022/11/10 14:00:12;;;;;;;5.40;1.40;;;13.30;99.90;;;;;;5049290;28;20516;-48
2022/11/10 14:03:02;;;;;;;4.82;2.33;;;13.30;99.90;;;;;;5050853;28;20075;-47
2022/11/10 14:05:56;;;;;;;3.70;1.80;;;13.40;99.90;;;;;;5051456;28;20052;-50
2022/11/10 14:08:47;;;;;;;3.30;1.80;;;13.40;99.90;;;;;;5043347;28;20082;-48
2022/11/10 14:11:39;;;;;;;5.20;2.58;;;13.30;99.90;;;;;;5035918;28;20055;-48
2022/11/10 14:15:02;;;;;;;10.70;3.08;;;13.30;99.90;;;;;;5052536;28;20044;-49
2022/11/10 14:17:54;;;;;;;10.50;3.97;;;13.00;99.90;;;;;;5050176;28;20048;-48
2022/11/10 14:20:42;;;;;;;3.88;1.88;;;12.90;99.90;;;;;;5055260;28;20067;-48
2022/11/10 14:23:46;;;;;;;6.00;2.30;;;12.90;99.90;;;;;;5054851;28;20151;-48
2022/11/10 14:26:52;;;;;;;6.10;2.28;;;12.90;99.90;;;;;;5050941;28;20056;-48
2022/11/10 14:29:39;;;;;;;3.70;1.50;;;12.80;99.90;;;;;;5054779;28;20155;-47
2022/11/10 14:32:26;;;;;;;4.38;2.15;;;12.70;99.90;;;;;;5054663;28;20051;-49
2022/11/10 14:35:22;;;;;;;5.30;2.20;;;12.40;99.90;;;;;;5052895;28;20126;-48
2022/11/10 14:38:20;;;;;;;3.53;1.80;;;12.20;99.90;;;;;;5049693;28;20059;-48
2022/11/10 14:41:20;;;;;;;2.10;1.20;;;12.10;99.90;;;;;;5049182;28;20524;-48
2022/11/10 14:44:11;;;;;;;2.97;1.55;;;11.90;99.90;;;;;;5049289;28;20052;-49
2022/11/10 14:47:31;;;;;;;8.93;4.65;;;11.60;99.90;;;;;;5048866;28;20063;-48
2022/11/10 14:50:26;;;;;;;6.18;2.50;;;11.50;99.90;;;;;;5054544;28;20059;-48
2022/11/10 14:53:28;;;;;;;3.85;2.33;;;11.30;99.90;;;;;;5054287;28;20106;-47
2022/11/10 14:56:16;;;;;;;3.03;1.55;;;11.20;99.90;;;;;;5048272;28;20056;-51